createdAt,value
2022-09-27T00:01:16.852Z,9.32
2022-09-27T00:03:45.386Z,9.32
2022-09-27T00:06:16.608Z,9.34
2022-09-27T00:08:44.702Z,9.31
2022-09-27T00:11:18.738Z,9.32
2022-09-27T00:13:46.789Z,9.29
2022-09-27T00:16:14.941Z,9.30
2022-09-27T00:18:43.126Z,9.30
2022-09-27T00:21:13.736Z,9.32
2022-09-27T00:23:43.599Z,9.21
2022-09-27T00:26:14.082Z,9.35
2022-09-27T00:28:42.398Z,9.33
2022-09-27T00:31:21.038Z,9.35
2022-09-27T00:33:50.343Z,9.35
2022-09-27T00:36:19.689Z,9.30
2022-09-27T00:38:49.374Z,9.36
2022-09-27T00:41:20.032Z,9.37
2022-09-27T00:43:50.595Z,9.37
2022-09-27T00:46:27.693Z,9.36
2022-09-27T00:49:04.996Z,9.37
2022-09-27T00:51:35.928Z,9.38
2022-09-27T00:54:08.064Z,9.38
2022-09-27T00:56:37.476Z,9.36
2022-09-27T00:59:11.564Z,9.38
2022-09-27T01:01:40.464Z,9.39
2022-09-27T01:04:11.584Z,9.34
2022-09-27T01:06:39.976Z,9.15
2022-09-27T01:09:11.827Z,9.37
2022-09-27T01:11:44.737Z,9.35
2022-09-27T01:14:42.388Z,9.34
2022-09-27T01:17:22.265Z,9.35
2022-09-27T01:20:25.304Z,9.32
2022-09-27T01:23:10.998Z,9.34
2022-09-27T01:25:55.064Z,9.37
2022-09-27T01:28:33.061Z,9.36
2022-09-27T01:31:09.870Z,9.33
2022-09-27T01:33:47.726Z,9.34
2022-09-27T01:36:23.025Z,9.32
2022-09-27T01:39:04.650Z,9.31
2022-09-27T01:41:40.537Z,9.31
2022-09-27T01:44:14.367Z,9.30
2022-09-27T01:46:49.275Z,9.32
2022-09-27T01:49:19.945Z,9.34
2022-09-27T01:51:53.368Z,9.30
2022-09-27T01:54:28.780Z,9.34
2022-09-27T01:57:00.103Z,9.34
2022-09-27T01:59:32.789Z,9.33
2022-09-27T02:02:08.776Z,9.35
2022-09-27T02:04:39.880Z,9.31
2022-09-27T02:07:14.660Z,9.33
2022-09-27T02:09:50.062Z,9.33
2022-09-27T02:12:22.656Z,9.29
2022-09-27T02:14:55.336Z,9.27
2022-09-27T02:17:36.470Z,9.27
2022-09-27T02:20:12.323Z,9.29
2022-09-27T02:22:45.760Z,9.30
2022-09-27T02:25:20.761Z,9.29
2022-09-27T02:27:56.878Z,9.30
2022-09-27T02:30:24.929Z,9.31
2022-09-27T02:32:54.900Z,9.29
2022-09-27T02:35:27.722Z,9.32
2022-09-27T02:37:56.553Z,9.25
2022-09-27T02:40:26.196Z,9.27
2022-09-27T02:42:54.254Z,9.26
2022-09-27T02:45:22.973Z,9.24
2022-09-27T02:48:04.656Z,9.26
2022-09-27T02:50:57.962Z,9.24
2022-09-27T02:53:39.391Z,9.25
2022-09-27T02:56:15.450Z,9.28
2022-09-27T02:58:53.986Z,9.28
2022-09-27T03:01:30.813Z,9.23
2022-09-27T03:04:05.959Z,9.25
2022-09-27T03:06:34.780Z,9.25
2022-09-27T03:09:02.835Z,9.23
2022-09-27T03:11:30.893Z,9.25
2022-09-27T03:14:08.846Z,9.24
2022-09-27T03:16:37.465Z,9.25
2022-09-27T03:19:07.117Z,9.28
2022-09-27T03:21:35.230Z,9.24
2022-09-27T03:24:04.140Z,9.20
2022-09-27T03:26:32.201Z,9.21
2022-09-27T03:29:00.244Z,9.23
2022-09-27T03:31:28.368Z,9.25
2022-09-27T03:33:56.564Z,9.26
2022-09-27T03:36:26.117Z,9.23
2022-09-27T03:38:54.207Z,9.23
2022-09-27T03:41:22.260Z,9.25
2022-09-27T03:43:50.306Z,9.25
2022-09-27T03:46:18.365Z,9.23
2022-09-27T03:48:46.509Z,9.21
2022-09-27T03:51:14.513Z,9.21
2022-09-27T03:53:43.942Z,9.25
2022-09-27T03:56:12.346Z,9.26
2022-09-27T03:58:40.437Z,9.23
2022-09-27T04:01:08.525Z,9.26
2022-09-27T04:03:37.186Z,9.16
2022-09-27T04:06:05.626Z,9.20
2022-09-27T04:08:33.701Z,9.19
2022-09-27T04:11:03.551Z,9.23
2022-09-27T04:13:31.608Z,9.18
2022-09-27T04:15:59.669Z,9.20
2022-09-27T04:18:27.729Z,9.22
2022-09-27T04:20:55.907Z,9.20
2022-09-27T04:23:29.023Z,9.21
2022-09-27T04:25:57.929Z,9.20
2022-09-27T04:28:27.989Z,9.21
2022-09-27T04:30:56.086Z,9.18
2022-09-27T04:33:24.680Z,9.23
2022-09-27T04:36:10.057Z,9.21
2022-09-27T04:38:38.643Z,9.20
2022-09-27T04:41:07.655Z,9.19
2022-09-27T04:43:37.493Z,9.17
2022-09-27T04:46:05.894Z,9.19
2022-09-27T04:48:34.334Z,9.16
2022-09-27T04:51:03.660Z,9.20
2022-09-27T04:53:32.377Z,9.21
2022-09-27T04:56:01.505Z,9.25
2022-09-27T04:58:29.980Z,9.25
2022-09-27T05:00:59.561Z,9.26
2022-09-27T05:03:28.275Z,9.26
2022-09-27T05:05:56.598Z,9.25
2022-09-27T05:08:24.751Z,9.28
2022-09-27T05:10:52.810Z,9.29
2022-09-27T05:13:20.868Z,9.29
2022-09-27T05:15:49.009Z,9.29
2022-09-27T05:18:19.015Z,9.28
2022-09-27T05:20:47.592Z,9.25
2022-09-27T05:23:15.724Z,9.24
2022-09-27T05:25:43.901Z,9.24
2022-09-27T05:28:12.035Z,9.29
2022-09-27T05:30:40.171Z,9.28
2022-09-27T05:33:08.401Z,9.30
2022-09-27T05:35:40.096Z,9.26
2022-09-27T05:38:10.169Z,9.25
2022-09-27T05:40:42.354Z,9.26
2022-09-27T05:43:11.287Z,9.25
2022-09-27T05:45:39.504Z,9.30
2022-09-27T05:48:08.257Z,9.31
2022-09-27T05:50:37.778Z,9.29
2022-09-27T05:53:06.129Z,9.28
2022-09-27T05:55:34.311Z,9.30
2022-09-27T05:58:04.569Z,9.32
2022-09-27T06:00:33.541Z,9.31
2022-09-27T06:03:03.746Z,9.36
2022-09-27T06:05:37.597Z,9.37
2022-09-27T06:08:08.896Z,9.42
2022-09-27T06:10:37.813Z,9.44
2022-09-27T06:13:07.709Z,9.43
2022-09-27T06:15:37.509Z,9.47
2022-09-27T06:18:07.236Z,9.45
2022-09-27T06:20:35.470Z,9.43
2022-09-27T06:23:09.832Z,9.39
2022-09-27T06:25:38.694Z,9.41
2022-09-27T06:28:06.803Z,9.43
2022-09-27T06:30:35.082Z,9.47
2022-09-27T06:33:04.077Z,9.50
2022-09-27T06:35:32.358Z,9.51
2022-09-27T06:38:04.720Z,9.55
2022-09-27T06:40:34.790Z,9.49
2022-09-27T06:43:08.062Z,9.51
2022-09-27T06:45:36.947Z,9.53
2022-09-27T06:48:06.084Z,9.59
2022-09-27T06:50:36.020Z,9.55
2022-09-27T06:53:05.470Z,9.61
2022-09-27T06:55:35.174Z,9.66
2022-09-27T06:58:21.305Z,9.68
2022-09-27T07:00:50.714Z,9.66
2022-09-27T07:03:19.521Z,9.60
2022-09-27T07:05:56.901Z,9.57
2022-09-27T07:08:28.626Z,9.56
2022-09-27T07:11:03.555Z,9.56
2022-09-27T07:13:32.692Z,9.53
2022-09-27T07:16:01.156Z,9.48
2022-09-27T07:18:29.397Z,9.52
2022-09-27T07:21:00.289Z,9.49
2022-09-27T07:23:29.056Z,9.54
2022-09-27T07:26:04.325Z,9.54
2022-09-27T07:28:32.469Z,9.57
2022-09-27T07:31:00.627Z,9.60
2022-09-27T07:33:29.026Z,9.60
2022-09-27T07:35:57.094Z,9.58
2022-09-27T07:38:25.164Z,9.61
2022-09-27T07:40:53.587Z,9.64
2022-09-27T07:43:23.692Z,9.67
2022-09-27T07:45:51.853Z,9.67
2022-09-27T07:48:20.011Z,9.71
2022-09-27T07:50:48.283Z,9.66
2022-09-27T07:53:16.380Z,9.66
2022-09-27T07:55:44.461Z,9.61
2022-09-27T07:58:13.701Z,9.67
2022-09-27T08:00:44.102Z,9.65
2022-09-27T08:03:15.988Z,9.63
2022-09-27T08:05:45.352Z,9.61
2022-09-27T08:08:13.467Z,9.67
2022-09-27T08:10:44.113Z,9.74
2022-09-27T08:13:12.810Z,9.76
2022-09-27T08:15:40.849Z,9.77
2022-09-27T08:18:11.068Z,9.67
2022-09-27T08:20:40.115Z,9.63
2022-09-27T08:23:08.253Z,9.66
2022-09-27T08:25:36.610Z,9.66
2022-09-27T08:28:05.924Z,9.64
2022-09-27T08:30:34.326Z,9.77
2022-09-27T08:33:03.508Z,9.77
2022-09-27T08:35:34.188Z,9.89
2022-09-27T08:38:05.919Z,9.94
2022-09-27T08:40:47.604Z,9.98
2022-09-27T08:43:23.978Z,10.05
2022-09-27T08:46:05.504Z,10.09
2022-09-27T08:48:35.871Z,10.08
2022-09-27T08:51:08.215Z,10.18
2022-09-27T08:53:40.604Z,10.08
2022-09-27T08:56:10.655Z,10.02
2022-09-27T08:58:43.270Z,10.01
2022-09-27T09:01:15.552Z,9.97
2022-09-27T09:03:49.939Z,10.02
2022-09-27T09:06:23.569Z,9.94
2022-09-27T09:09:20.004Z,9.99
2022-09-27T09:12:15.129Z,10.01
2022-09-27T09:14:58.599Z,10.06
2022-09-27T09:17:39.644Z,10.06
2022-09-27T09:20:22.749Z,10.05
2022-09-27T09:23:10.840Z,10.08
2022-09-27T09:25:44.804Z,10.06
2022-09-27T09:28:29.528Z,10.18
2022-09-27T09:31:06.279Z,10.17
2022-09-27T09:33:39.397Z,10.22
2022-09-27T09:36:14.208Z,10.26
2022-09-27T09:38:47.004Z,10.32
2022-09-27T09:41:22.505Z,10.41
2022-09-27T09:43:54.345Z,10.47
2022-09-27T09:46:28.029Z,10.45
2022-09-27T09:49:04.723Z,10.48
2022-09-27T09:51:39.400Z,10.37
2022-09-27T09:54:17.108Z,10.16
2022-09-27T09:56:49.622Z,10.01
2022-09-27T09:59:24.332Z,9.90
2022-09-27T10:01:57.076Z,9.85
2022-09-27T10:04:28.796Z,9.75
2022-09-27T10:07:00.228Z,9.54
2022-09-27T10:09:30.333Z,9.38
2022-09-27T10:11:58.449Z,9.35
2022-09-27T10:14:28.405Z,9.41
2022-09-27T10:17:00.400Z,9.41
2022-09-27T10:19:31.765Z,9.31
2022-09-27T10:22:03.586Z,9.27
2022-09-27T10:25:01.279Z,9.22
2022-09-27T10:27:39.003Z,9.21
2022-09-27T10:30:08.369Z,9.09
2022-09-27T10:32:38.605Z,9.05
2022-09-27T10:35:36.873Z,9.06
2022-09-27T10:38:26.642Z,8.98
2022-09-27T10:40:58.763Z,8.84
2022-09-27T10:43:30.596Z,8.86
2022-09-27T10:46:07.570Z,8.93
2022-09-27T10:48:36.555Z,8.90
2022-09-27T10:51:06.557Z,8.89
2022-09-27T10:53:37.597Z,8.89
2022-09-27T10:56:08.323Z,8.90
2022-09-27T10:58:39.001Z,8.98
2022-09-27T11:01:09.253Z,9.03
2022-09-27T11:03:46.550Z,9.11
2022-09-27T11:06:21.434Z,9.03
2022-09-27T11:08:50.511Z,9.00
2022-09-27T11:11:22.399Z,9.04
2022-09-27T11:14:04.294Z,9.00
2022-09-27T11:16:47.978Z,9.06
2022-09-27T11:19:33.509Z,9.12
2022-09-27T11:22:10.941Z,9.12
2022-09-27T11:24:51.789Z,9.14
2022-09-27T11:27:32.967Z,9.20
2022-09-27T11:30:09.708Z,9.24
2022-09-27T11:33:02.477Z,9.37
2022-09-27T11:35:52.592Z,9.44
2022-09-27T11:38:51.270Z,9.43
2022-09-27T11:41:32.425Z,9.40
2022-09-27T11:44:32.777Z,9.43
2022-09-27T11:47:11.269Z,9.67
2022-09-27T11:49:57.145Z,9.81
2022-09-27T11:52:44.271Z,9.76
2022-09-27T11:55:21.313Z,10.06
2022-09-27T11:57:57.551Z,10.09
2022-09-27T12:00:45.074Z,10.34
2022-09-27T12:03:42.412Z,10.35
2022-09-27T12:06:14.330Z,10.29
2022-09-27T12:09:04.279Z,10.18
2022-09-27T12:11:39.036Z,10.19
2022-09-27T12:14:12.614Z,10.19
2022-09-27T12:16:43.564Z,10.21
2022-09-27T12:19:19.220Z,10.18
2022-09-27T12:21:47.618Z,10.03
2022-09-27T12:24:22.349Z,9.95
2022-09-27T12:26:53.890Z,9.97
2022-09-27T12:29:26.302Z,9.95
2022-09-27T12:32:03.198Z,10.06
2022-09-27T12:34:37.550Z,9.96
2022-09-27T12:37:13.655Z,10.22
2022-09-27T12:39:51.672Z,10.08
2022-09-27T12:42:24.053Z,10.03
2022-09-27T12:44:53.395Z,9.99
2022-09-27T12:47:35.462Z,9.98
2022-09-27T12:50:10.791Z,10.00
2022-09-27T12:52:43.870Z,9.99
2022-09-27T12:55:27.167Z,10.03
2022-09-27T12:58:14.274Z,9.89
2022-09-27T13:00:49.412Z,9.94
2022-09-27T13:03:32.760Z,9.94
2022-09-27T13:06:24.309Z,10.01
2022-09-27T13:09:46.140Z,10.05
2022-09-27T13:12:17.841Z,10.08
2022-09-27T13:15:01.078Z,10.07
2022-09-27T13:18:01.931Z,10.10
2022-09-27T13:20:48.236Z,10.13
2022-09-27T13:24:01.534Z,10.13
2022-09-27T13:26:48.514Z,10.05
2022-09-27T13:29:28.794Z,10.17
2022-09-27T13:32:19.248Z,10.24
2022-09-27T13:34:48.837Z,10.21
2022-09-27T13:37:46.803Z,10.28
2022-09-27T13:40:33.702Z,10.18
2022-09-27T13:43:47.685Z,10.18
2022-09-27T13:46:18.896Z,10.28
2022-09-27T13:48:51.940Z,10.13
2022-09-27T13:51:32.361Z,10.19
2022-09-27T13:54:09.368Z,10.16
2022-09-27T13:56:56.185Z,10.26
2022-09-27T13:59:34.327Z,10.21
2022-09-27T14:02:14.529Z,10.07
2022-09-27T14:04:48.338Z,9.83
2022-09-27T14:07:20.069Z,9.91
2022-09-27T14:09:54.670Z,9.84
2022-09-27T14:12:27.907Z,9.88
2022-09-27T14:14:57.687Z,9.80
2022-09-27T14:17:26.655Z,9.72
2022-09-27T14:19:55.971Z,9.77
2022-09-27T14:22:25.184Z,9.68
2022-09-27T14:24:56.333Z,9.70
2022-09-27T14:27:25.820Z,9.66
2022-09-27T14:29:56.897Z,9.74
2022-09-27T14:32:26.873Z,9.71
2022-09-27T14:35:32.730Z,9.71
2022-09-27T14:38:15.722Z,9.73
2022-09-27T14:41:01.835Z,9.76
2022-09-27T14:43:32.047Z,9.74
2022-09-27T14:46:02.544Z,9.77
2022-09-27T14:48:33.232Z,9.73
2022-09-27T14:51:06.176Z,9.74
2022-09-27T14:53:37.708Z,9.76
2022-09-27T14:56:08.230Z,9.78
2022-09-27T14:58:47.182Z,9.76
2022-09-27T15:01:17.284Z,9.74
2022-09-27T15:03:47.102Z,9.74
2022-09-27T15:06:15.611Z,9.68
2022-09-27T15:08:47.510Z,9.63
2022-09-27T15:11:19.139Z,9.69
2022-09-27T15:13:51.153Z,9.73
2022-09-27T15:16:22.586Z,9.71
2022-09-27T15:18:59.555Z,9.74
2022-09-27T15:21:33.132Z,9.75
2022-09-27T15:24:02.430Z,9.75
2022-09-27T15:26:39.024Z,9.78
2022-09-27T15:29:07.570Z,9.80
2022-09-27T15:31:37.430Z,9.81
2022-09-27T15:34:06.948Z,9.80
2022-09-27T15:36:53.885Z,9.81
2022-09-27T15:39:29.160Z,9.72
2022-09-27T15:42:07.377Z,9.69
2022-09-27T15:44:45.190Z,9.71
2022-09-27T15:47:41.398Z,9.70
2022-09-27T15:50:41.138Z,9.60
2022-09-27T15:53:09.787Z,9.59
2022-09-27T15:55:43.312Z,9.59
2022-09-27T15:58:17.137Z,9.42
2022-09-27T16:00:55.783Z,9.37
2022-09-27T16:03:24.384Z,9.38
2022-09-27T16:05:52.749Z,9.30
2022-09-27T16:08:20.694Z,9.31
2022-09-27T16:10:52.218Z,9.13
2022-09-27T16:13:22.083Z,9.08
2022-09-27T16:15:50.705Z,8.91
2022-09-27T16:18:19.066Z,8.60
2022-09-27T16:20:47.029Z,8.44
2022-09-27T16:23:14.976Z,8.24
2022-09-27T16:25:42.926Z,8.30
2022-09-27T16:28:12.426Z,8.14
2022-09-27T16:30:41.860Z,8.26
2022-09-27T16:33:09.850Z,8.18
2022-09-27T16:35:40.851Z,8.14
2022-09-27T16:38:08.900Z,8.09
2022-09-27T16:40:37.404Z,8.07
2022-09-27T16:43:07.169Z,8.00
2022-09-27T16:45:36.359Z,7.99
2022-09-27T16:48:06.002Z,7.93
2022-09-27T16:50:51.356Z,7.94
2022-09-27T16:53:19.334Z,7.96
2022-09-27T16:55:47.381Z,7.96
2022-09-27T16:58:15.362Z,7.97
2022-09-27T17:00:43.474Z,8.01
2022-09-27T17:03:12.812Z,8.04
2022-09-27T17:05:40.738Z,8.06
2022-09-27T17:08:08.855Z,8.10
2022-09-27T17:10:38.754Z,8.05
2022-09-27T17:13:07.163Z,8.05
2022-09-27T17:15:35.156Z,8.08
2022-09-27T17:18:03.110Z,8.13
2022-09-27T17:20:33.136Z,8.13
2022-09-27T17:23:01.170Z,8.12
2022-09-27T17:25:29.129Z,8.11
2022-09-27T17:27:57.963Z,8.17
2022-09-27T17:30:26.183Z,8.16
2022-09-27T17:32:54.145Z,8.17
2022-09-27T17:35:22.104Z,8.22
2022-09-27T17:37:51.441Z,8.24
2022-09-27T17:40:19.498Z,8.26
2022-09-27T17:42:47.498Z,8.20
2022-09-27T17:45:15.497Z,8.23
2022-09-27T17:48:00.832Z,8.25
2022-09-27T17:50:28.957Z,8.24
2022-09-27T17:52:59.413Z,8.23
2022-09-27T17:55:28.016Z,8.22
2022-09-27T17:57:56.213Z,8.22
2022-09-27T18:00:24.362Z,8.23
2022-09-27T18:02:52.852Z,8.18
2022-09-27T18:05:21.743Z,8.19
2022-09-27T18:07:50.256Z,8.18
2022-09-27T18:10:19.872Z,8.17
2022-09-27T18:12:47.845Z,8.20
2022-09-27T18:15:17.956Z,8.20
2022-09-27T18:17:46.049Z,8.18
2022-09-27T18:20:14.141Z,8.16
2022-09-27T18:22:42.172Z,8.17
2022-09-27T18:25:11.491Z,8.14
2022-09-27T18:27:43.287Z,8.15
2022-09-27T18:30:12.657Z,8.12
2022-09-27T18:32:40.670Z,8.10
2022-09-27T18:35:09.044Z,8.08
2022-09-27T18:37:37.009Z,8.06
2022-09-27T18:40:05.581Z,8.09
2022-09-27T18:42:33.626Z,8.12
2022-09-27T18:45:02.984Z,8.06
2022-09-27T18:47:31.027Z,8.01
2022-09-27T18:49:59.123Z,8.03
2022-09-27T18:52:27.115Z,8.04
2022-09-27T18:54:55.179Z,8.04
2022-09-27T18:57:23.257Z,7.99
2022-09-27T18:59:51.927Z,7.97
2022-09-27T19:02:21.267Z,7.95
2022-09-27T19:04:49.344Z,8.00
2022-09-27T19:07:17.294Z,7.95
2022-09-27T19:09:45.538Z,7.96
2022-09-27T19:12:13.534Z,7.97
2022-09-27T19:14:41.472Z,7.97
2022-09-27T19:17:09.400Z,8.00
2022-09-27T19:19:38.737Z,7.94
2022-09-27T19:22:06.705Z,7.93
2022-09-27T19:24:34.689Z,7.94
2022-09-27T19:27:02.666Z,7.95
2022-09-27T19:29:30.640Z,7.94
2022-09-27T19:31:58.609Z,7.92
2022-09-27T19:34:26.579Z,7.98
2022-09-27T19:36:55.911Z,8.00
2022-09-27T19:39:23.856Z,7.95
2022-09-27T19:41:51.840Z,7.96
2022-09-27T19:44:19.857Z,7.93
2022-09-27T19:46:47.892Z,7.97
2022-09-27T19:49:16.053Z,7.91
2022-09-27T19:51:44.042Z,7.87
2022-09-27T19:54:13.641Z,7.89
2022-09-27T19:56:41.636Z,7.92
2022-09-27T19:59:09.613Z,7.87
2022-09-27T20:01:37.675Z,7.93
2022-09-27T20:04:05.703Z,7.87
2022-09-27T20:06:34.501Z,7.90
2022-09-27T20:09:03.615Z,7.89
2022-09-27T20:11:33.989Z,7.83
2022-09-27T20:14:02.175Z,7.85
2022-09-27T20:16:30.332Z,7.85
2022-09-27T20:19:00.155Z,7.88
2022-09-27T20:21:31.062Z,7.87
2022-09-27T20:24:00.697Z,7.78
2022-09-27T20:26:30.503Z,7.81
2022-09-27T20:29:01.571Z,7.80
2022-09-27T20:31:32.851Z,7.83
2022-09-27T20:34:01.554Z,7.84
2022-09-27T20:36:31.668Z,7.87
2022-09-27T20:39:03.266Z,7.90
2022-09-27T20:41:34.188Z,7.91
2022-09-27T20:44:07.677Z,7.94
2022-09-27T20:46:37.170Z,7.95
2022-09-27T20:49:07.390Z,7.94
2022-09-27T20:51:36.924Z,7.91
2022-09-27T20:54:06.336Z,7.90
2022-09-27T20:56:36.427Z,7.86
2022-09-27T20:59:10.465Z,7.90
2022-09-27T21:01:43.276Z,7.86
2022-09-27T21:04:12.867Z,7.87
2022-09-27T21:06:41.657Z,7.85
2022-09-27T21:09:10.622Z,7.88
2022-09-27T21:11:38.651Z,7.83
2022-09-27T21:14:07.949Z,7.84
2022-09-27T21:16:36.584Z,7.81
2022-09-27T21:19:04.713Z,7.85
2022-09-27T21:21:32.644Z,7.86
2022-09-27T21:24:02.357Z,7.85
2022-09-27T21:26:32.008Z,7.78
2022-09-27T21:29:02.502Z,7.77
2022-09-27T21:31:33.395Z,7.74
2022-09-27T21:34:03.677Z,7.78
2022-09-27T21:36:34.205Z,7.72
2022-09-27T21:39:02.851Z,7.72
2022-09-27T21:41:30.985Z,7.67
2022-09-27T21:43:58.944Z,7.63
2022-09-27T21:46:28.539Z,7.61
2022-09-27T21:48:59.419Z,7.69
2022-09-27T21:51:29.323Z,7.66
2022-09-27T21:54:00.636Z,7.63
2022-09-27T21:56:29.993Z,7.59
2022-09-27T21:58:57.954Z,7.57
2022-09-27T22:01:29.476Z,7.56
2022-09-27T22:03:59.773Z,7.54
2022-09-27T22:06:29.841Z,7.50
2022-09-27T22:08:59.106Z,7.44
2022-09-27T22:11:28.728Z,7.47
2022-09-27T22:13:57.188Z,7.45
2022-09-27T22:16:26.856Z,7.46
2022-09-27T22:18:56.757Z,7.47
2022-09-27T22:21:28.161Z,7.46
2022-09-27T22:23:57.245Z,7.46
2022-09-27T22:26:26.852Z,7.41
2022-09-27T22:28:55.198Z,7.41
2022-09-27T22:31:23.726Z,7.39
2022-09-27T22:33:53.302Z,7.38
2022-09-27T22:36:22.170Z,7.42
2022-09-27T22:38:52.084Z,7.45
2022-09-27T22:41:20.320Z,7.38
2022-09-27T22:43:48.733Z,7.46
2022-09-27T22:46:17.145Z,7.47
2022-09-27T22:48:45.157Z,7.42
2022-09-27T22:51:13.362Z,7.41
2022-09-27T22:53:41.324Z,7.40
2022-09-27T22:56:15.256Z,7.33
2022-09-27T22:58:44.108Z,7.37
2022-09-27T23:01:15.987Z,7.31
2022-09-27T23:03:45.517Z,7.31
2022-09-27T23:06:14.671Z,7.29
2022-09-27T23:08:43.164Z,7.28
2022-09-27T23:11:15.074Z,7.31
2022-09-27T23:13:43.865Z,7.34
2022-09-27T23:16:15.435Z,7.23
2022-09-27T23:18:44.520Z,7.32
2022-09-27T23:21:14.416Z,7.29
2022-09-27T23:23:45.780Z,7.33
2022-09-27T23:26:17.285Z,7.35
2022-09-27T23:28:46.029Z,7.32
2022-09-27T23:31:16.797Z,7.30
2022-09-27T23:33:48.385Z,7.26
2022-09-27T23:36:18.652Z,7.26
2022-09-27T23:38:48.615Z,7.28
2022-09-27T23:41:18.712Z,7.29
2022-09-27T23:43:48.364Z,7.24
2022-09-27T23:46:17.380Z,7.24
2022-09-27T23:48:45.843Z,7.17
2022-09-27T23:51:13.831Z,7.20
2022-09-27T23:53:41.889Z,7.25
2022-09-27T23:56:13.038Z,7.23
2022-09-27T23:58:44.695Z,7.20
